sensor_id;sensor_type;location;lat;lon;timestamp;P1;durP1;ratioP1;P2;durP2;ratioP2
11086;SDS011;5597;47.588;9.642;2023-07-22T00:02:11;2.70;;;2.50;;
11086;SDS011;5597;47.588;9.642;2023-07-22T00:04:36;2.57;;;2.33;;
11086;SDS011;5597;47.588;9.642;2023-07-22T00:07:02;2.97;;;2.77;;
11086;SDS011;5597;47.588;9.642;2023-07-22T00:09:28;2.73;;;2.53;;
11086;SDS011;5597;47.588;9.642;2023-07-22T00:11:54;2.97;;;2.77;;
11086;SDS011;5597;47.588;9.642;2023-07-22T00:14:19;3.73;;;2.90;;
11086;SDS011;5597;47.588;9.642;2023-07-22T00:16:45;3.20;;;2.90;;
11086;SDS011;5597;47.588;9.642;2023-07-22T00:19:10;3.17;;;2.87;;
11086;SDS011;5597;47.588;9.642;2023-07-22T00:21:36;3.17;;;2.83;;
11086;SDS011;5597;47.588;9.642;2023-07-22T00:24:02;3.07;;;2.77;;
11086;SDS011;5597;47.588;9.642;2023-07-22T00:26:27;3.10;;;2.90;;
11086;SDS011;5597;47.588;9.642;2023-07-22T00:28:53;2.90;;;2.60;;
11086;SDS011;5597;47.588;9.642;2023-07-22T00:31:18;3.23;;;2.90;;
11086;SDS011;5597;47.588;9.642;2023-07-22T00:33:44;4.37;;;3.07;;
11086;SDS011;5597;47.588;9.642;2023-07-22T00:36:09;3.37;;;3.07;;
11086;SDS011;5597;47.588;9.642;2023-07-22T00:38:35;4.17;;;3.50;;
11086;SDS011;5597;47.588;9.642;2023-07-22T00:41:01;4.17;;;3.77;;
11086;SDS011;5597;47.588;9.642;2023-07-22T00:43:29;4.67;;;4.20;;
11086;SDS011;5597;47.588;9.642;2023-07-22T00:45:55;5.87;;;4.03;;
11086;SDS011;5597;47.588;9.642;2023-07-22T00:48:20;4.70;;;4.20;;
11086;SDS011;5597;47.588;9.642;2023-07-22T00:50:47;4.87;;;3.83;;
11086;SDS011;5597;47.588;9.642;2023-07-22T00:53:12;4.13;;;3.47;;
11086;SDS011;5597;47.588;9.642;2023-07-22T00:55:39;3.97;;;3.30;;
11086;SDS011;5597;47.588;9.642;2023-07-22T00:58:07;3.90;;;3.50;;
11086;SDS011;5597;47.588;9.642;2023-07-22T01:00:33;3.80;;;3.40;;
11086;SDS011;5597;47.588;9.642;2023-07-22T01:02:58;3.93;;;3.40;;
11086;SDS011;5597;47.588;9.642;2023-07-22T01:05:25;3.83;;;3.43;;
11086;SDS011;5597;47.588;9.642;2023-07-22T01:07:52;3.93;;;3.47;;
11086;SDS011;5597;47.588;9.642;2023-07-22T01:10:18;3.20;;;2.90;;
11086;SDS011;5597;47.588;9.642;2023-07-22T01:12:44;3.03;;;2.73;;
11086;SDS011;5597;47.588;9.642;2023-07-22T01:15:10;3.57;;;2.97;;
11086;SDS011;5597;47.588;9.642;2023-07-22T01:17:36;3.20;;;2.90;;
11086;SDS011;5597;47.588;9.642;2023-07-22T01:20:02;2.93;;;2.63;;
11086;SDS011;5597;47.588;9.642;2023-07-22T01:22:29;3.97;;;3.13;;
11086;SDS011;5597;47.588;9.642;2023-07-22T01:24:55;2.80;;;2.60;;
11086;SDS011;5597;47.588;9.642;2023-07-22T01:27:21;3.00;;;2.63;;
11086;SDS011;5597;47.588;9.642;2023-07-22T01:29:46;2.60;;;2.40;;
11086;SDS011;5597;47.588;9.642;2023-07-22T01:32:15;2.80;;;2.50;;
11086;SDS011;5597;47.588;9.642;2023-07-22T01:34:42;2.43;;;2.23;;
11086;SDS011;5597;47.588;9.642;2023-07-22T01:37:07;2.40;;;2.20;;
11086;SDS011;5597;47.588;9.642;2023-07-22T01:39:34;2.80;;;2.40;;
11086;SDS011;5597;47.588;9.642;2023-07-22T01:42:01;2.43;;;2.23;;
11086;SDS011;5597;47.588;9.642;2023-07-22T01:44:27;2.10;;;1.93;;
11086;SDS011;5597;47.588;9.642;2023-07-22T01:46:53;2.40;;;2.20;;
11086;SDS011;5597;47.588;9.642;2023-07-22T01:49:19;2.57;;;1.90;;
11086;SDS011;5597;47.588;9.642;2023-07-22T01:51:45;2.20;;;2.00;;
11086;SDS011;5597;47.588;9.642;2023-07-22T01:54:11;2.07;;;1.87;;
11086;SDS011;5597;47.588;9.642;2023-07-22T01:56:37;2.23;;;2.03;;
11086;SDS011;5597;47.588;9.642;2023-07-22T01:59:04;2.27;;;2.07;;
11086;SDS011;5597;47.588;9.642;2023-07-22T02:01:30;2.17;;;1.97;;
11086;SDS011;5597;47.588;9.642;2023-07-22T02:03:55;2.07;;;1.87;;
11086;SDS011;5597;47.588;9.642;2023-07-22T02:06:21;2.30;;;2.10;;
11086;SDS011;5597;47.588;9.642;2023-07-22T02:08:47;2.10;;;1.90;;
11086;SDS011;5597;47.588;9.642;2023-07-22T02:11:13;2.17;;;1.97;;
11086;SDS011;5597;47.588;9.642;2023-07-22T02:13:38;1.90;;;1.80;;
11086;SDS011;5597;47.588;9.642;2023-07-22T02:16:04;2.03;;;1.83;;
11086;SDS011;5597;47.588;9.642;2023-07-22T02:18:30;3.13;;;2.10;;
11086;SDS011;5597;47.588;9.642;2023-07-22T02:20:56;2.03;;;1.83;;
11086;SDS011;5597;47.588;9.642;2023-07-22T02:23:22;1.90;;;1.80;;
11086;SDS011;5597;47.588;9.642;2023-07-22T02:25:49;2.10;;;1.90;;
11086;SDS011;5597;47.588;9.642;2023-07-22T02:28:15;2.27;;;2.03;;
11086;SDS011;5597;47.588;9.642;2023-07-22T02:30:45;3.20;;;1.97;;
11086;SDS011;5597;47.588;9.642;2023-07-22T02:33:11;2.13;;;1.90;;
11086;SDS011;5597;47.588;9.642;2023-07-22T02:35:36;2.30;;;2.10;;
11086;SDS011;5597;47.588;9.642;2023-07-22T02:38:02;2.20;;;2.00;;
11086;SDS011;5597;47.588;9.642;2023-07-22T02:40:27;2.60;;;2.00;;
11086;SDS011;5597;47.588;9.642;2023-07-22T02:42:53;3.87;;;2.17;;
11086;SDS011;5597;47.588;9.642;2023-07-22T02:45:18;2.03;;;1.90;;
11086;SDS011;5597;47.588;9.642;2023-07-22T02:47:44;3.10;;;2.10;;
11086;SDS011;5597;47.588;9.642;2023-07-22T02:50:11;2.07;;;1.87;;
11086;SDS011;5597;47.588;9.642;2023-07-22T02:52:36;2.13;;;1.93;;
11086;SDS011;5597;47.588;9.642;2023-07-22T02:57:43;2.20;;;2.00;;
11086;SDS011;5597;47.588;9.642;2023-07-22T03:00:11;2.00;;;1.90;;
11086;SDS011;5597;47.588;9.642;2023-07-22T03:02:41;3.03;;;2.03;;
11086;SDS011;5597;47.588;9.642;2023-07-22T03:05:07;2.30;;;2.10;;
11086;SDS011;5597;47.588;9.642;2023-07-22T03:07:36;2.60;;;2.07;;
11086;SDS011;5597;47.588;9.642;2023-07-22T03:10:06;2.20;;;2.00;;
11086;SDS011;5597;47.588;9.642;2023-07-22T03:12:32;2.10;;;1.90;;
11086;SDS011;5597;47.588;9.642;2023-07-22T03:14:58;2.87;;;2.20;;
11086;SDS011;5597;47.588;9.642;2023-07-22T03:17:24;2.67;;;2.33;;
11086;SDS011;5597;47.588;9.642;2023-07-22T03:19:49;5.23;;;2.50;;
11086;SDS011;5597;47.588;9.642;2023-07-22T03:22:15;2.47;;;2.27;;
11086;SDS011;5597;47.588;9.642;2023-07-22T03:24:42;2.43;;;2.23;;
11086;SDS011;5597;47.588;9.642;2023-07-22T03:27:08;2.33;;;2.13;;
11086;SDS011;5597;47.588;9.642;2023-07-22T03:29:33;2.00;;;1.83;;
11086;SDS011;5597;47.588;9.642;2023-07-22T03:31:59;2.43;;;2.23;;
11086;SDS011;5597;47.588;9.642;2023-07-22T03:34:26;1.90;;;1.80;;
11086;SDS011;5597;47.588;9.642;2023-07-22T03:36:52;2.20;;;2.00;;
11086;SDS011;5597;47.588;9.642;2023-07-22T03:39:17;2.37;;;2.17;;
11086;SDS011;5597;47.588;9.642;2023-07-22T03:41:43;4.03;;;2.70;;
11086;SDS011;5597;47.588;9.642;2023-07-22T03:44:09;3.70;;;2.27;;
11086;SDS011;5597;47.588;9.642;2023-07-22T03:46:34;4.20;;;2.60;;
11086;SDS011;5597;47.588;9.642;2023-07-22T03:49:00;2.60;;;2.40;;
11086;SDS011;5597;47.588;9.642;2023-07-22T03:51:25;2.50;;;2.30;;
11086;SDS011;5597;47.588;9.642;2023-07-22T03:53:51;2.40;;;2.20;;
11086;SDS011;5597;47.588;9.642;2023-07-22T03:56:17;2.47;;;2.23;;
11086;SDS011;5597;47.588;9.642;2023-07-22T03:58:42;2.20;;;2.00;;
11086;SDS011;5597;47.588;9.642;2023-07-22T04:01:10;2.53;;;2.00;;
11086;SDS011;5597;47.588;9.642;2023-07-22T04:03:36;2.10;;;1.90;;
11086;SDS011;5597;47.588;9.642;2023-07-22T04:06:01;2.47;;;2.27;;
11086;SDS011;5597;47.588;9.642;2023-07-22T04:08:27;2.33;;;2.10;;
11086;SDS011;5597;47.588;9.642;2023-07-22T04:10:53;3.87;;;2.53;;
11086;SDS011;5597;47.588;9.642;2023-07-22T04:13:22;3.10;;;2.80;;
11086;SDS011;5597;47.588;9.642;2023-07-22T04:15:49;2.43;;;2.23;;
11086;SDS011;5597;47.588;9.642;2023-07-22T04:18:15;2.53;;;2.07;;
11086;SDS011;5597;47.588;9.642;2023-07-22T04:20:41;2.63;;;2.40;;
11086;SDS011;5597;47.588;9.642;2023-07-22T04:23:07;3.07;;;2.77;;
11086;SDS011;5597;47.588;9.642;2023-07-22T04:25:32;2.60;;;2.40;;
11086;SDS011;5597;47.588;9.642;2023-07-22T04:27:58;3.23;;;2.83;;
11086;SDS011;5597;47.588;9.642;2023-07-22T04:30:24;3.10;;;2.80;;
11086;SDS011;5597;47.588;9.642;2023-07-22T04:32:50;2.83;;;2.57;;
11086;SDS011;5597;47.588;9.642;2023-07-22T04:35:18;2.70;;;2.50;;
11086;SDS011;5597;47.588;9.642;2023-07-22T04:37:44;2.40;;;2.20;;
11086;SDS011;5597;47.588;9.642;2023-07-22T04:40:12;2.60;;;2.40;;
11086;SDS011;5597;47.588;9.642;2023-07-22T04:42:39;3.67;;;2.50;;
11086;SDS011;5597;47.588;9.642;2023-07-22T04:45:06;3.47;;;2.80;;
11086;SDS011;5597;47.588;9.642;2023-07-22T04:47:34;3.10;;;2.80;;
11086;SDS011;5597;47.588;9.642;2023-07-22T04:50:00;5.37;;;3.30;;
11086;SDS011;5597;47.588;9.642;2023-07-22T04:52:26;6.33;;;3.23;;
11086;SDS011;5597;47.588;9.642;2023-07-22T04:54:51;3.57;;;2.83;;
11086;SDS011;5597;47.588;9.642;2023-07-22T04:57:18;3.63;;;3.00;;
11086;SDS011;5597;47.588;9.642;2023-07-22T04:59:45;3.33;;;2.93;;
11086;SDS011;5597;47.588;9.642;2023-07-22T05:02:11;3.03;;;2.77;;
11086;SDS011;5597;47.588;9.642;2023-07-22T05:04:36;2.77;;;2.30;;
11086;SDS011;5597;47.588;9.642;2023-07-22T05:07:02;2.53;;;2.33;;
11086;SDS011;5597;47.588;9.642;2023-07-22T05:09:28;2.47;;;2.27;;
11086;SDS011;5597;47.588;9.642;2023-07-22T05:11:53;2.40;;;2.20;;
11086;SDS011;5597;47.588;9.642;2023-07-22T05:14:20;2.57;;;2.37;;
11086;SDS011;5597;47.588;9.642;2023-07-22T05:16:45;2.67;;;2.43;;
11086;SDS011;5597;47.588;9.642;2023-07-22T05:19:11;2.10;;;2.00;;
11086;SDS011;5597;47.588;9.642;2023-07-22T05:21:36;2.53;;;2.23;;
11086;SDS011;5597;47.588;9.642;2023-07-22T05:24:02;2.17;;;1.97;;
11086;SDS011;5597;47.588;9.642;2023-07-22T05:26:28;2.07;;;1.90;;
11086;SDS011;5597;47.588;9.642;2023-07-22T05:28:53;2.30;;;2.10;;
11086;SDS011;5597;47.588;9.642;2023-07-22T05:31:19;2.30;;;2.10;;
11086;SDS011;5597;47.588;9.642;2023-07-22T05:33:44;2.60;;;2.40;;
11086;SDS011;5597;47.588;9.642;2023-07-22T05:36:10;1.90;;;1.80;;
11086;SDS011;5597;47.588;9.642;2023-07-22T05:38:35;2.83;;;2.63;;
11086;SDS011;5597;47.588;9.642;2023-07-22T05:41:01;2.43;;;2.23;;
11086;SDS011;5597;47.588;9.642;2023-07-22T05:43:26;2.37;;;2.17;;
11086;SDS011;5597;47.588;9.642;2023-07-22T05:45:52;2.53;;;2.33;;
11086;SDS011;5597;47.588;9.642;2023-07-22T05:48:18;2.33;;;2.10;;
11086;SDS011;5597;47.588;9.642;2023-07-22T05:50:43;3.67;;;2.30;;
11086;SDS011;5597;47.588;9.642;2023-07-22T05:53:09;2.83;;;2.40;;
11086;SDS011;5597;47.588;9.642;2023-07-22T05:55:35;3.40;;;2.40;;
11086;SDS011;5597;47.588;9.642;2023-07-22T05:58:02;2.67;;;1.97;;
11086;SDS011;5597;47.588;9.642;2023-07-22T06:00:30;2.63;;;2.40;;
11086;SDS011;5597;47.588;9.642;2023-07-22T06:02:59;2.30;;;2.10;;
11086;SDS011;5597;47.588;9.642;2023-07-22T06:05:24;2.90;;;2.10;;
11086;SDS011;5597;47.588;9.642;2023-07-22T06:07:50;3.53;;;2.23;;
11086;SDS011;5597;47.588;9.642;2023-07-22T06:10:16;1.90;;;1.80;;
11086;SDS011;5597;47.588;9.642;2023-07-22T06:12:41;2.07;;;1.90;;
11086;SDS011;5597;47.588;9.642;2023-07-22T06:15:07;2.07;;;1.87;;
11086;SDS011;5597;47.588;9.642;2023-07-22T06:17:33;1.83;;;1.73;;
11086;SDS011;5597;47.588;9.642;2023-07-22T06:19:59;2.10;;;1.63;;
11086;SDS011;5597;47.588;9.642;2023-07-22T06:22:24;1.97;;;1.80;;
11086;SDS011;5597;47.588;9.642;2023-07-22T06:24:50;2.20;;;2.00;;
11086;SDS011;5597;47.588;9.642;2023-07-22T06:27:15;2.03;;;1.90;;
11086;SDS011;5597;47.588;9.642;2023-07-22T06:29:41;1.80;;;1.70;;
11086;SDS011;5597;47.588;9.642;2023-07-22T06:32:07;2.20;;;2.00;;
11086;SDS011;5597;47.588;9.642;2023-07-22T06:34:32;1.90;;;1.70;;
11086;SDS011;5597;47.588;9.642;2023-07-22T06:36:58;2.40;;;2.20;;
11086;SDS011;5597;47.588;9.642;2023-07-22T06:39:23;2.13;;;1.93;;
11086;SDS011;5597;47.588;9.642;2023-07-22T06:41:49;3.03;;;2.00;;
11086;SDS011;5597;47.588;9.642;2023-07-22T06:44:14;2.60;;;2.17;;
11086;SDS011;5597;47.588;9.642;2023-07-22T06:46:40;2.40;;;2.20;;
11086;SDS011;5597;47.588;9.642;2023-07-22T06:49:06;2.37;;;2.17;;
11086;SDS011;5597;47.588;9.642;2023-07-22T06:51:32;2.00;;;1.90;;
11086;SDS011;5597;47.588;9.642;2023-07-22T06:53:57;2.40;;;2.20;;
11086;SDS011;5597;47.588;9.642;2023-07-22T06:56:23;2.30;;;2.10;;
11086;SDS011;5597;47.588;9.642;2023-07-22T06:58:49;2.93;;;2.23;;
11086;SDS011;5597;47.588;9.642;2023-07-22T07:01:16;2.40;;;2.20;;
11086;SDS011;5597;47.588;9.642;2023-07-22T07:03:41;2.40;;;2.20;;
11086;SDS011;5597;47.588;9.642;2023-07-22T07:06:07;2.40;;;2.20;;
11086;SDS011;5597;47.588;9.642;2023-07-22T07:08:32;3.37;;;2.40;;
11086;SDS011;5597;47.588;9.642;2023-07-22T07:11:01;2.37;;;2.17;;
11086;SDS011;5597;47.588;9.642;2023-07-22T07:13:27;2.63;;;2.20;;
11086;SDS011;5597;47.588;9.642;2023-07-22T07:15:52;2.30;;;2.10;;
11086;SDS011;5597;47.588;9.642;2023-07-22T07:18:19;2.60;;;2.17;;
11086;SDS011;5597;47.588;9.642;2023-07-22T07:20:45;2.63;;;2.23;;
11086;SDS011;5597;47.588;9.642;2023-07-22T07:23:11;2.07;;;1.87;;
11086;SDS011;5597;47.588;9.642;2023-07-22T07:25:37;3.70;;;2.10;;
11086;SDS011;5597;47.588;9.642;2023-07-22T07:28:03;2.37;;;2.17;;
11086;SDS011;5597;47.588;9.642;2023-07-22T07:30:29;2.47;;;2.10;;
11086;SDS011;5597;47.588;9.642;2023-07-22T07:32:55;2.70;;;2.40;;
11086;SDS011;5597;47.588;9.642;2023-07-22T07:35:21;3.47;;;2.60;;
11086;SDS011;5597;47.588;9.642;2023-07-22T07:37:47;2.67;;;2.20;;
11086;SDS011;5597;47.588;9.642;2023-07-22T07:40:12;2.50;;;2.23;;
11086;SDS011;5597;47.588;9.642;2023-07-22T07:42:38;2.13;;;1.93;;
11086;SDS011;5597;47.588;9.642;2023-07-22T07:45:03;2.70;;;2.47;;
11086;SDS011;5597;47.588;9.642;2023-07-22T07:47:29;2.60;;;2.10;;
11086;SDS011;5597;47.588;9.642;2023-07-22T07:49:55;2.70;;;2.43;;
11086;SDS011;5597;47.588;9.642;2023-07-22T07:52:21;2.23;;;2.03;;
11086;SDS011;5597;47.588;9.642;2023-07-22T07:54:47;2.63;;;2.43;;
11086;SDS011;5597;47.588;9.642;2023-07-22T07:57:13;2.30;;;2.10;;
11086;SDS011;5597;47.588;9.642;2023-07-22T07:59:38;2.73;;;2.47;;
11086;SDS011;5597;47.588;9.642;2023-07-22T08:02:04;2.23;;;2.03;;
11086;SDS011;5597;47.588;9.642;2023-07-22T08:04:34;3.20;;;2.53;;
11086;SDS011;5597;47.588;9.642;2023-07-22T08:06:59;2.83;;;2.43;;
11086;SDS011;5597;47.588;9.642;2023-07-22T08:09:25;2.40;;;2.20;;
11086;SDS011;5597;47.588;9.642;2023-07-22T08:11:50;2.90;;;2.40;;
11086;SDS011;5597;47.588;9.642;2023-07-22T08:14:16;2.30;;;2.10;;
11086;SDS011;5597;47.588;9.642;2023-07-22T08:16:43;4.03;;;2.60;;
11086;SDS011;5597;47.588;9.642;2023-07-22T08:19:09;2.30;;;2.10;;
11086;SDS011;5597;47.588;9.642;2023-07-22T08:21:34;3.90;;;2.60;;
11086;SDS011;5597;47.588;9.642;2023-07-22T08:24:00;2.70;;;2.40;;
11086;SDS011;5597;47.588;9.642;2023-07-22T08:26:25;3.67;;;2.50;;
11086;SDS011;5597;47.588;9.642;2023-07-22T08:28:51;3.43;;;2.70;;
11086;SDS011;5597;47.588;9.642;2023-07-22T08:31:16;2.63;;;2.40;;
11086;SDS011;5597;47.588;9.642;2023-07-22T08:33:42;2.83;;;2.50;;
11086;SDS011;5597;47.588;9.642;2023-07-22T08:36:08;3.20;;;2.70;;
11086;SDS011;5597;47.588;9.642;2023-07-22T08:38:33;3.03;;;2.70;;
11086;SDS011;5597;47.588;9.642;2023-07-22T08:40:59;2.47;;;2.27;;
11086;SDS011;5597;47.588;9.642;2023-07-22T08:43:25;3.63;;;2.70;;
11086;SDS011;5597;47.588;9.642;2023-07-22T08:45:53;3.53;;;2.80;;
11086;SDS011;5597;47.588;9.642;2023-07-22T08:48:19;3.10;;;2.30;;
11086;SDS011;5597;47.588;9.642;2023-07-22T08:53:23;3.53;;;2.27;;
11086;SDS011;5597;47.588;9.642;2023-07-22T08:55:51;2.00;;;1.90;;
11086;SDS011;5597;47.588;9.642;2023-07-22T08:58:18;2.50;;;2.27;;
11086;SDS011;5597;47.588;9.642;2023-07-22T09:00:43;2.60;;;2.17;;
11086;SDS011;5597;47.588;9.642;2023-07-22T09:03:11;2.47;;;2.27;;
11086;SDS011;5597;47.588;9.642;2023-07-22T09:05:36;2.93;;;2.40;;
11086;SDS011;5597;47.588;9.642;2023-07-22T09:08:03;3.13;;;2.50;;
11086;SDS011;5597;47.588;9.642;2023-07-22T09:10:31;2.50;;;2.20;;
11086;SDS011;5597;47.588;9.642;2023-07-22T09:12:59;2.10;;;1.90;;
11086;SDS011;5597;47.588;9.642;2023-07-22T09:15:26;2.00;;;1.80;;
11086;SDS011;5597;47.588;9.642;2023-07-22T09:17:52;2.57;;;2.00;;
11086;SDS011;5597;47.588;9.642;2023-07-22T09:20:17;3.17;;;2.20;;
11086;SDS011;5597;47.588;9.642;2023-07-22T09:22:48;2.57;;;2.20;;
11086;SDS011;5597;47.588;9.642;2023-07-22T09:25:18;3.77;;;2.20;;
11086;SDS011;5597;47.588;9.642;2023-07-22T09:27:45;4.23;;;2.20;;
11086;SDS011;5597;47.588;9.642;2023-07-22T09:32:58;2.47;;;2.27;;
11086;SDS011;5597;47.588;9.642;2023-07-22T09:35:26;2.60;;;2.40;;
11086;SDS011;5597;47.588;9.642;2023-07-22T09:37:54;3.00;;;2.37;;
11086;SDS011;5597;47.588;9.642;2023-07-22T09:40:20;2.37;;;2.17;;
11086;SDS011;5597;47.588;9.642;2023-07-22T09:42:51;3.57;;;2.30;;
11086;SDS011;5597;47.588;9.642;2023-07-22T09:45:18;2.50;;;2.30;;
11086;SDS011;5597;47.588;9.642;2023-07-22T09:47:47;2.43;;;2.03;;
11086;SDS011;5597;47.588;9.642;2023-07-22T09:50:14;3.03;;;2.60;;
11086;SDS011;5597;47.588;9.642;2023-07-22T09:52:44;3.90;;;2.00;;
11086;SDS011;5597;47.588;9.642;2023-07-22T09:55:14;2.30;;;2.10;;
11086;SDS011;5597;47.588;9.642;2023-07-22T09:57:43;2.03;;;1.83;;
11086;SDS011;5597;47.588;9.642;2023-07-22T10:00:11;2.53;;;2.20;;
11086;SDS011;5597;47.588;9.642;2023-07-22T10:02:39;2.33;;;2.07;;
11086;SDS011;5597;47.588;9.642;2023-07-22T10:05:08;2.43;;;2.07;;
11086;SDS011;5597;47.588;9.642;2023-07-22T10:07:38;2.37;;;2.00;;
11086;SDS011;5597;47.588;9.642;2023-07-22T10:10:07;3.00;;;2.00;;
11086;SDS011;5597;47.588;9.642;2023-07-22T10:12:35;3.30;;;1.90;;
11086;SDS011;5597;47.588;9.642;2023-07-22T10:15:01;2.93;;;1.87;;
11086;SDS011;5597;47.588;9.642;2023-07-22T10:17:28;2.37;;;1.93;;
11086;SDS011;5597;47.588;9.642;2023-07-22T10:19:54;2.20;;;2.00;;
11086;SDS011;5597;47.588;9.642;2023-07-22T10:22:20;2.83;;;2.00;;
11086;SDS011;5597;47.588;9.642;2023-07-22T10:24:46;2.33;;;2.03;;
11086;SDS011;5597;47.588;9.642;2023-07-22T10:27:13;1.80;;;1.67;;
11086;SDS011;5597;47.588;9.642;2023-07-22T10:29:41;1.70;;;1.60;;
11086;SDS011;5597;47.588;9.642;2023-07-22T10:32:09;1.67;;;1.53;;
11086;SDS011;5597;47.588;9.642;2023-07-22T10:34:34;2.17;;;1.77;;
11086;SDS011;5597;47.588;9.642;2023-07-22T10:37:00;1.80;;;1.60;;
11086;SDS011;5597;47.588;9.642;2023-07-22T10:39:26;1.50;;;1.40;;
11086;SDS011;5597;47.588;9.642;2023-07-22T10:42:02;3.07;;;1.60;;
11086;SDS011;5597;47.588;9.642;2023-07-22T10:44:35;1.80;;;1.33;;
11086;SDS011;5597;47.588;9.642;2023-07-22T10:47:02;1.60;;;1.30;;
11086;SDS011;5597;47.588;9.642;2023-07-22T10:49:44;1.30;;;1.20;;
11086;SDS011;5597;47.588;9.642;2023-07-22T10:52:12;1.93;;;1.53;;
11086;SDS011;5597;47.588;9.642;2023-07-22T10:54:40;1.83;;;1.60;;
11086;SDS011;5597;47.588;9.642;2023-07-22T10:59:48;2.10;;;1.40;;
11086;SDS011;5597;47.588;9.642;2023-07-22T11:02:28;2.57;;;1.50;;
11086;SDS011;5597;47.588;9.642;2023-07-22T11:04:57;1.53;;;1.40;;
11086;SDS011;5597;47.588;9.642;2023-07-22T11:07:34;1.60;;;1.10;;
11086;SDS011;5597;47.588;9.642;2023-07-22T11:10:14;1.90;;;1.40;;
11086;SDS011;5597;47.588;9.642;2023-07-22T11:12:42;1.60;;;1.50;;
11086;SDS011;5597;47.588;9.642;2023-07-22T11:15:09;1.77;;;1.67;;
11086;SDS011;5597;47.588;9.642;2023-07-22T11:17:35;2.30;;;1.70;;
11086;SDS011;5597;47.588;9.642;2023-07-22T11:20:02;1.60;;;1.50;;
11086;SDS011;5597;47.588;9.642;2023-07-22T11:22:28;1.90;;;1.70;;
11086;SDS011;5597;47.588;9.642;2023-07-22T11:24:54;1.90;;;1.73;;
11086;SDS011;5597;47.588;9.642;2023-07-22T11:27:21;1.90;;;1.60;;
11086;SDS011;5597;47.588;9.642;2023-07-22T11:29:48;1.97;;;1.80;;
11086;SDS011;5597;47.588;9.642;2023-07-22T11:32:14;2.20;;;2.03;;
11086;SDS011;5597;47.588;9.642;2023-07-22T11:34:44;2.20;;;2.00;;
11086;SDS011;5597;47.588;9.642;2023-07-22T11:37:10;2.90;;;1.70;;
11086;SDS011;5597;47.588;9.642;2023-07-22T11:39:36;2.03;;;1.70;;
11086;SDS011;5597;47.588;9.642;2023-07-22T11:42:02;2.00;;;1.70;;
11086;SDS011;5597;47.588;9.642;2023-07-22T11:44:29;2.03;;;1.83;;
11086;SDS011;5597;47.588;9.642;2023-07-22T11:46:59;2.33;;;1.80;;
11086;SDS011;5597;47.588;9.642;2023-07-22T11:49:30;1.80;;;1.70;;
11086;SDS011;5597;47.588;9.642;2023-07-22T11:51:56;1.70;;;1.60;;
11086;SDS011;5597;47.588;9.642;2023-07-22T11:54:23;1.70;;;1.60;;
11086;SDS011;5597;47.588;9.642;2023-07-22T11:56:49;2.20;;;1.70;;
11086;SDS011;5597;47.588;9.642;2023-07-22T11:59:15;1.70;;;1.60;;
11086;SDS011;5597;47.588;9.642;2023-07-22T12:01:42;1.90;;;1.70;;
11086;SDS011;5597;47.588;9.642;2023-07-22T12:04:11;1.90;;;1.70;;
11086;SDS011;5597;47.588;9.642;2023-07-22T12:06:39;2.20;;;1.70;;
11086;SDS011;5597;47.588;9.642;2023-07-22T12:09:06;1.93;;;1.70;;
11086;SDS011;5597;47.588;9.642;2023-07-22T12:11:33;1.93;;;1.70;;
11086;SDS011;5597;47.588;9.642;2023-07-22T12:14:06;2.10;;;1.90;;
11086;SDS011;5597;47.588;9.642;2023-07-22T12:16:37;1.80;;;1.60;;
11086;SDS011;5597;47.588;9.642;2023-07-22T12:19:05;2.03;;;1.83;;
11086;SDS011;5597;47.588;9.642;2023-07-22T12:21:32;2.37;;;2.03;;
11086;SDS011;5597;47.588;9.642;2023-07-22T12:23:58;2.30;;;1.70;;
11086;SDS011;5597;47.588;9.642;2023-07-22T12:26:24;1.93;;;1.60;;
11086;SDS011;5597;47.588;9.642;2023-07-22T12:28:50;1.80;;;1.70;;
11086;SDS011;5597;47.588;9.642;2023-07-22T12:31:15;1.80;;;1.70;;
11086;SDS011;5597;47.588;9.642;2023-07-22T12:33:41;2.00;;;1.70;;
11086;SDS011;5597;47.588;9.642;2023-07-22T12:36:07;2.03;;;1.83;;
11086;SDS011;5597;47.588;9.642;2023-07-22T12:38:33;2.57;;;1.80;;
11086;SDS011;5597;47.588;9.642;2023-07-22T12:40:58;1.80;;;1.70;;
11086;SDS011;5597;47.588;9.642;2023-07-22T12:43:25;1.90;;;1.77;;
11086;SDS011;5597;47.588;9.642;2023-07-22T12:45:50;2.07;;;1.70;;
11086;SDS011;5597;47.588;9.642;2023-07-22T12:48:16;3.13;;;1.73;;
11086;SDS011;5597;47.588;9.642;2023-07-22T12:50:42;1.80;;;1.70;;
11086;SDS011;5597;47.588;9.642;2023-07-22T12:53:08;1.77;;;1.67;;
11086;SDS011;5597;47.588;9.642;2023-07-22T12:55:34;2.30;;;2.10;;
11086;SDS011;5597;47.588;9.642;2023-07-22T12:57:59;2.13;;;1.83;;
11086;SDS011;5597;47.588;9.642;2023-07-22T13:00:25;2.23;;;1.97;;
11086;SDS011;5597;47.588;9.642;2023-07-22T13:02:50;1.90;;;1.80;;
11086;SDS011;5597;47.588;9.642;2023-07-22T13:05:16;2.33;;;2.13;;
11086;SDS011;5597;47.588;9.642;2023-07-22T13:07:42;2.00;;;1.80;;
11086;SDS011;5597;47.588;9.642;2023-07-22T13:10:08;2.57;;;1.93;;
11086;SDS011;5597;47.588;9.642;2023-07-22T13:12:36;3.00;;;2.00;;
11086;SDS011;5597;47.588;9.642;2023-07-22T13:15:02;2.50;;;2.00;;
11086;SDS011;5597;47.588;9.642;2023-07-22T13:17:28;2.30;;;1.90;;
11086;SDS011;5597;47.588;9.642;2023-07-22T13:19:54;2.57;;;2.00;;
11086;SDS011;5597;47.588;9.642;2023-07-22T13:22:20;2.00;;;1.80;;
11086;SDS011;5597;47.588;9.642;2023-07-22T13:24:45;2.20;;;2.00;;
11086;SDS011;5597;47.588;9.642;2023-07-22T13:27:11;1.97;;;1.87;;
11086;SDS011;5597;47.588;9.642;2023-07-22T13:29:36;3.27;;;1.80;;
11086;SDS011;5597;47.588;9.642;2023-07-22T13:32:02;2.20;;;2.03;;
11086;SDS011;5597;47.588;9.642;2023-07-22T13:34:29;2.20;;;2.00;;
11086;SDS011;5597;47.588;9.642;2023-07-22T13:36:54;2.10;;;1.90;;
11086;SDS011;5597;47.588;9.642;2023-07-22T13:39:20;2.30;;;2.10;;
11086;SDS011;5597;47.588;9.642;2023-07-22T13:41:46;2.13;;;1.93;;
11086;SDS011;5597;47.588;9.642;2023-07-22T13:44:12;2.30;;;2.10;;
11086;SDS011;5597;47.588;9.642;2023-07-22T13:46:38;2.10;;;1.90;;
11086;SDS011;5597;47.588;9.642;2023-07-22T13:49:03;3.70;;;2.20;;
11086;SDS011;5597;47.588;9.642;2023-07-22T13:51:29;2.63;;;2.07;;
11086;SDS011;5597;47.588;9.642;2023-07-22T13:53:54;2.20;;;2.00;;
11086;SDS011;5597;47.588;9.642;2023-07-22T13:56:20;3.60;;;2.07;;
11086;SDS011;5597;47.588;9.642;2023-07-22T13:58:46;2.67;;;1.97;;
11086;SDS011;5597;47.588;9.642;2023-07-22T14:01:12;2.93;;;2.13;;
11086;SDS011;5597;47.588;9.642;2023-07-22T14:03:38;2.13;;;1.90;;
11086;SDS011;5597;47.588;9.642;2023-07-22T14:06:04;1.90;;;1.80;;
11086;SDS011;5597;47.588;9.642;2023-07-22T14:08:29;2.60;;;1.90;;
11086;SDS011;5597;47.588;9.642;2023-07-22T14:10:55;2.20;;;2.00;;
11086;SDS011;5597;47.588;9.642;2023-07-22T14:13:20;2.53;;;2.00;;
11086;SDS011;5597;47.588;9.642;2023-07-22T14:15:46;1.80;;;1.70;;
11086;SDS011;5597;47.588;9.642;2023-07-22T14:18:11;2.20;;;1.97;;
11086;SDS011;5597;47.588;9.642;2023-07-22T14:20:42;3.20;;;2.40;;
11086;SDS011;5597;47.588;9.642;2023-07-22T14:23:08;2.37;;;2.17;;
11086;SDS011;5597;47.588;9.642;2023-07-22T14:25:33;2.13;;;1.93;;
11086;SDS011;5597;47.588;9.642;2023-07-22T14:27:59;3.50;;;1.90;;
11086;SDS011;5597;47.588;9.642;2023-07-22T14:30:24;2.40;;;2.00;;
11086;SDS011;5597;47.588;9.642;2023-07-22T14:32:50;2.10;;;1.90;;
11086;SDS011;5597;47.588;9.642;2023-07-22T14:35:16;3.13;;;1.80;;
11086;SDS011;5597;47.588;9.642;2023-07-22T14:37:41;2.47;;;2.10;;
11086;SDS011;5597;47.588;9.642;2023-07-22T14:40:07;1.87;;;1.77;;
11086;SDS011;5597;47.588;9.642;2023-07-22T14:42:35;2.10;;;1.90;;
11086;SDS011;5597;47.588;9.642;2023-07-22T14:45:01;2.00;;;1.80;;
11086;SDS011;5597;47.588;9.642;2023-07-22T14:47:27;2.40;;;1.77;;
11086;SDS011;5597;47.588;9.642;2023-07-22T14:49:52;2.03;;;1.83;;
11086;SDS011;5597;47.588;9.642;2023-07-22T14:52:18;2.00;;;1.80;;
11086;SDS011;5597;47.588;9.642;2023-07-22T14:54:44;2.00;;;1.80;;
11086;SDS011;5597;47.588;9.642;2023-07-22T14:57:09;2.30;;;2.10;;
11086;SDS011;5597;47.588;9.642;2023-07-22T14:59:35;2.17;;;1.87;;
11086;SDS011;5597;47.588;9.642;2023-07-22T15:02:00;2.20;;;2.00;;
11086;SDS011;5597;47.588;9.642;2023-07-22T15:04:26;2.10;;;1.87;;
11086;SDS011;5597;47.588;9.642;2023-07-22T15:06:51;2.10;;;1.90;;